createdAt,value
2018-04-15T00:01:58.917Z,8.10
2018-04-15T00:04:33.678Z,7.40
2018-04-15T00:07:02.517Z,8.10
2018-04-15T00:09:40.741Z,8.10
2018-04-15T00:12:11.270Z,8.10
2018-04-15T00:14:57.493Z,8.10
2018-04-15T00:17:26.412Z,8.00
2018-04-15T00:20:02.414Z,7.90
2018-04-15T00:22:30.225Z,7.80
2018-04-15T00:24:58.438Z,7.80
2018-04-15T00:27:26.579Z,7.70
2018-04-15T00:29:58.871Z,7.70
2018-04-15T00:32:27.097Z,7.60
2018-04-15T00:35:00.292Z,7.60
2018-04-15T00:37:28.464Z,7.50
2018-04-15T00:40:01.768Z,7.60
2018-04-15T00:42:30.290Z,7.60
2018-04-15T00:45:02.697Z,7.60
2018-04-15T00:47:30.749Z,7.70
2018-04-15T00:50:10.278Z,7.70
2018-04-15T00:52:38.404Z,7.70
2018-04-15T00:55:11.203Z,7.70
2018-04-15T00:57:39.808Z,7.60
2018-04-15T01:00:09.094Z,7.60
2018-04-15T01:02:37.233Z,7.60
2018-04-15T01:05:07.721Z,7.50
2018-04-15T01:07:36.800Z,7.50
2018-04-15T01:10:04.647Z,7.50
2018-04-15T01:12:32.867Z,7.50
2018-04-15T01:15:09.264Z,7.40
2018-04-15T01:17:39.069Z,7.60
2018-04-15T01:20:18.503Z,7.60
2018-04-15T01:22:47.219Z,7.50
2018-04-15T01:25:28.905Z,7.40
2018-04-15T01:28:02.549Z,7.20
2018-04-15T01:33:21.983Z,7.10
2018-04-15T01:36:14.297Z,6.90
2018-04-15T01:38:52.084Z,6.80
2018-04-15T01:41:27.018Z,6.70
2018-04-15T01:44:07.121Z,6.60
2018-04-15T01:46:35.963Z,6.60
2018-04-15T01:49:12.688Z,6.50
2018-04-15T01:52:06.202Z,6.50
2018-04-15T01:54:50.367Z,6.40
2018-04-15T01:57:23.773Z,6.30
2018-04-15T02:02:44.885Z,6.20
2018-04-15T02:05:13.412Z,6.20
2018-04-15T02:07:48.364Z,6.20
2018-04-15T02:10:20.925Z,6.20
2018-04-15T02:12:52.763Z,6.10
2018-04-15T02:15:27.465Z,6.10
2018-04-15T02:18:11.697Z,6.00
2018-04-15T02:20:48.267Z,5.90
2018-04-15T02:23:24.518Z,5.90
2018-04-15T02:25:56.332Z,5.90
2018-04-15T02:28:34.457Z,5.80
2018-04-15T02:31:13.607Z,5.80
2018-04-15T02:33:44.817Z,5.80
2018-04-15T02:36:18.268Z,5.80
2018-04-15T02:38:47.925Z,5.80
2018-04-15T02:41:24.972Z,5.70
2018-04-15T02:43:53.192Z,5.70
2018-04-15T02:46:23.632Z,5.50
2018-04-15T02:48:52.795Z,5.50
2018-04-15T02:51:32.321Z,5.40
2018-04-15T02:54:02.847Z,5.40
2018-04-15T02:56:40.888Z,5.40
2018-04-15T02:59:11.392Z,5.40
2018-04-15T03:01:43.191Z,5.30
2018-04-15T03:04:12.908Z,5.30
2018-04-15T03:06:41.434Z,5.20
2018-04-15T03:09:10.061Z,5.20
2018-04-15T03:11:39.683Z,5.20
2018-04-15T03:14:07.820Z,5.20
2018-04-15T03:16:40.244Z,5.20
2018-04-15T03:19:09.707Z,5.10
2018-04-15T03:21:49.253Z,5.10
2018-04-15T03:24:17.763Z,5.10
2018-04-15T03:26:50.414Z,5.10
2018-04-15T03:29:18.932Z,5.10
2018-04-15T03:31:52.453Z,5.10
2018-04-15T03:34:21.779Z,5.10
2018-04-15T03:36:54.060Z,5.00
2018-04-15T03:39:24.764Z,5.00
2018-04-15T03:41:53.135Z,5.00
2018-04-15T03:44:21.339Z,5.00
2018-04-15T03:46:49.416Z,5.00
2018-04-15T03:49:18.202Z,4.90
2018-04-15T03:51:47.421Z,4.80
2018-04-15T03:54:16.057Z,4.90
2018-04-15T03:59:38.643Z,4.90
2018-04-15T04:02:06.739Z,4.90
2018-04-15T04:04:41.284Z,5.00
2018-04-15T04:07:09.394Z,5.00
2018-04-15T04:09:37.850Z,5.00
2018-04-15T04:12:05.988Z,5.00
2018-04-15T04:14:39.128Z,5.10
2018-04-15T04:17:07.380Z,5.00
2018-04-15T04:19:47.997Z,5.10
2018-04-15T04:22:36.098Z,5.00
2018-04-15T04:25:24.938Z,5.00
2018-04-15T04:27:54.323Z,5.10
2018-04-15T04:30:25.060Z,5.00
2018-04-15T04:32:53.034Z,5.10
2018-04-15T04:35:23.548Z,5.10
2018-04-15T04:37:53.044Z,5.10
2018-04-15T04:40:24.572Z,5.20
2018-04-15T04:42:54.154Z,5.20
2018-04-15T04:45:25.500Z,5.20
2018-04-15T04:47:54.703Z,5.40
2018-04-15T04:50:25.568Z,5.30
2018-04-15T04:52:53.767Z,5.40
2018-04-15T04:55:30.427Z,5.50
2018-04-15T04:58:05.162Z,5.70
2018-04-15T05:00:40.381Z,5.70
2018-04-15T05:03:08.953Z,5.80
2018-04-15T05:05:50.696Z,5.90
2018-04-15T05:08:24.349Z,5.90
2018-04-15T05:10:58.413Z,5.90
2018-04-15T05:13:26.946Z,6.00
2018-04-15T05:15:55.707Z,6.00
2018-04-15T05:18:24.657Z,6.10
2018-04-15T05:20:53.087Z,6.10
2018-04-15T05:23:22.049Z,6.30
2018-04-15T05:26:07.862Z,6.20
2018-04-15T05:28:36.209Z,6.30
2018-04-15T05:31:07.811Z,6.40
2018-04-15T05:33:36.222Z,6.40
2018-04-15T05:36:06.987Z,6.50
2018-04-15T05:38:36.834Z,6.60
2018-04-15T05:41:25.683Z,6.60
2018-04-15T05:43:55.922Z,6.60
2018-04-15T05:46:25.839Z,6.70
2018-04-15T05:48:54.394Z,6.80
2018-04-15T05:51:23.915Z,6.80
2018-04-15T05:53:52.387Z,7.00
2018-04-15T05:56:21.924Z,7.00
2018-04-15T05:58:53.108Z,7.10
2018-04-15T06:01:27.694Z,7.10
2018-04-15T06:03:57.088Z,7.20
2018-04-15T06:06:33.754Z,7.20
2018-04-15T06:09:02.910Z,7.30
2018-04-15T06:11:32.175Z,7.40
2018-04-15T06:14:00.968Z,7.50
2018-04-15T06:16:30.139Z,7.60
2018-04-15T06:18:58.717Z,7.70
2018-04-15T06:21:27.632Z,7.80
2018-04-15T06:23:55.736Z,8.00
2018-04-15T06:26:29.890Z,8.10
2018-04-15T06:28:58.303Z,7.70
2018-04-15T06:31:30.088Z,8.40
2018-04-15T06:33:59.263Z,8.60
2018-04-15T06:36:34.405Z,8.60
2018-04-15T06:39:02.352Z,8.80
2018-04-15T06:41:34.649Z,8.90
2018-04-15T06:44:04.265Z,9.00
2018-04-15T06:46:36.851Z,9.10
2018-04-15T06:49:05.018Z,9.20
2018-04-15T06:51:35.503Z,9.40
2018-04-15T06:54:03.573Z,9.50
2018-04-15T06:56:31.495Z,9.60
2018-04-15T06:58:59.884Z,9.60
2018-04-15T07:01:29.277Z,9.70
2018-04-15T07:04:00.063Z,9.80
2018-04-15T07:06:34.142Z,9.90
2018-04-15T07:09:02.137Z,10.00
2018-04-15T07:11:33.900Z,10.10
2018-04-15T07:14:01.738Z,10.20
2018-04-15T07:16:30.039Z,10.30
2018-04-15T07:19:01.586Z,10.50
2018-04-15T07:21:30.261Z,10.70
2018-04-15T07:24:01.522Z,10.80
2018-04-15T07:26:30.589Z,11.30
2018-04-15T07:28:59.207Z,11.20
2018-04-15T07:31:27.287Z,11.50
2018-04-15T07:33:55.572Z,11.70
2018-04-15T07:36:24.021Z,11.90
2018-04-15T07:38:52.513Z,12.10
2018-04-15T07:41:20.611Z,12.20
2018-04-15T07:43:49.455Z,12.50
2018-04-15T07:46:18.242Z,12.50
2018-04-15T07:48:46.588Z,12.70
2018-04-15T07:51:14.685Z,13.00
2018-04-15T07:53:43.196Z,13.30
2018-04-15T07:56:12.072Z,13.50
2018-04-15T07:58:43.852Z,13.60
2018-04-15T08:01:14.028Z,13.70
2018-04-15T08:03:42.520Z,14.10
2018-04-15T08:06:14.342Z,14.30
2018-04-15T08:08:42.690Z,14.60
2018-04-15T08:11:11.240Z,14.50
2018-04-15T08:13:40.369Z,14.60
2018-04-15T08:16:09.113Z,15.10
2018-04-15T08:18:37.550Z,15.50
2018-04-15T08:21:06.741Z,16.00
2018-04-15T08:29:46.025Z,16.40
2018-04-15T08:35:18.958Z,16.00
2018-04-15T08:37:47.974Z,16.20
2018-04-15T08:40:16.287Z,16.30
2018-04-15T08:42:44.677Z,16.90
2018-04-15T08:45:13.557Z,17.40
2018-04-15T08:47:41.769Z,17.20
2018-04-15T08:50:09.593Z,17.40
2018-04-15T08:52:38.105Z,18.00
2018-04-15T08:55:09.459Z,17.70
2018-04-15T08:57:38.366Z,17.90
2018-04-15T09:00:17.176Z,17.90
2018-04-15T09:02:48.400Z,17.20
2018-04-15T09:05:18.695Z,17.10
2018-04-15T09:08:19.826Z,17.10
2018-04-15T09:10:49.034Z,16.70
2018-04-15T09:13:18.802Z,16.00
2018-04-15T09:15:47.995Z,15.50
2018-04-15T09:18:18.790Z,15.70
2018-04-15T09:20:48.191Z,15.60
2018-04-15T09:23:37.796Z,15.70
2018-04-15T09:26:22.526Z,15.50
2018-04-15T09:28:51.536Z,16.10
2018-04-15T09:31:23.926Z,16.40
2018-04-15T09:33:54.592Z,17.20
2018-04-15T09:36:23.216Z,17.60
2018-04-15T09:38:56.214Z,18.10
2018-04-15T09:41:24.514Z,18.60
2018-04-15T09:43:53.850Z,20.00
2018-04-15T09:46:26.737Z,22.50
2018-04-15T09:49:00.366Z,22.40
2018-04-15T09:51:29.564Z,23.30
2018-04-15T09:54:06.258Z,24.00
2018-04-15T09:56:36.559Z,23.50
2018-04-15T09:59:05.897Z,21.30
2018-04-15T10:01:35.596Z,22.30
2018-04-15T10:04:23.701Z,22.50
2018-04-15T10:06:56.436Z,21.10
2018-04-15T10:09:27.922Z,21.10
2018-04-15T10:12:04.135Z,19.80
2018-04-15T10:14:35.064Z,19.80
2018-04-15T10:17:16.300Z,20.50
2018-04-15T10:19:45.570Z,20.60
2018-04-15T10:22:15.142Z,20.60
2018-04-15T10:24:43.277Z,20.20
2018-04-15T10:27:14.380Z,19.30
2018-04-15T10:29:42.718Z,19.20
2018-04-15T10:32:14.132Z,20.10
2018-04-15T10:34:42.381Z,20.80
2018-04-15T10:37:11.735Z,21.90
2018-04-15T10:39:46.262Z,20.50
2018-04-15T10:42:17.763Z,19.80
2018-04-15T10:44:56.416Z,19.80
2018-04-15T10:47:29.439Z,20.00
2018-04-15T10:49:58.232Z,20.30
2018-04-15T10:52:28.369Z,20.00
2018-04-15T10:54:56.953Z,19.70
2018-04-15T10:57:26.928Z,19.30
2018-04-15T10:59:54.923Z,19.80
2018-04-15T11:02:23.502Z,20.80
2018-04-15T11:04:52.158Z,23.00
2018-04-15T11:07:22.810Z,25.40
2018-04-15T11:09:50.900Z,25.30
2018-04-15T11:12:32.114Z,24.70
2018-04-15T11:15:05.067Z,23.40
2018-04-15T11:17:36.657Z,23.80
2018-04-15T11:20:05.516Z,23.50
2018-04-15T11:22:35.447Z,24.10
2018-04-15T11:25:11.395Z,23.50
2018-04-15T11:27:40.597Z,23.50
2018-04-15T11:30:10.739Z,24.40
2018-04-15T11:32:38.612Z,25.20
2018-04-15T11:38:17.798Z,22.60
2018-04-15T11:43:46.080Z,21.50
2018-04-15T11:46:15.041Z,21.20
2018-04-15T11:48:44.028Z,21.70
2018-04-15T11:51:12.165Z,21.70
2018-04-15T11:53:39.965Z,22.10
2018-04-15T11:56:12.097Z,21.80
2018-04-15T11:58:42.634Z,21.60
2018-04-15T12:01:22.357Z,21.30
2018-04-15T12:03:53.930Z,21.40
2018-04-15T12:06:23.260Z,20.70
2018-04-15T12:08:51.499Z,20.70
2018-04-15T12:11:19.896Z,20.20
2018-04-15T12:16:45.502Z,20.60
2018-04-15T12:19:15.250Z,20.80
2018-04-15T12:21:45.167Z,20.70
2018-04-15T12:24:14.786Z,20.90
2018-04-15T12:26:46.325Z,20.90
2018-04-15T12:29:20.284Z,20.90
2018-04-15T12:31:50.471Z,20.40
2018-04-15T12:34:32.787Z,20.20
2018-04-15T12:37:01.932Z,20.30
2018-04-15T12:39:33.184Z,20.60
2018-04-15T12:42:04.265Z,20.60
2018-04-15T12:44:48.685Z,20.80
2018-04-15T12:47:19.406Z,21.00
2018-04-15T12:49:53.650Z,21.40
2018-04-15T12:52:26.112Z,21.70
2018-04-15T12:54:54.074Z,21.70
2018-04-15T12:57:29.739Z,22.00
2018-04-15T13:00:00.779Z,22.00
2018-04-15T13:02:30.428Z,21.40
2018-04-15T13:04:58.858Z,21.60
2018-04-15T13:07:29.694Z,21.80
2018-04-15T13:09:59.789Z,22.20
2018-04-15T13:12:35.419Z,22.20
2018-04-15T13:15:22.942Z,22.10
2018-04-15T13:17:53.456Z,22.40
2018-04-15T13:20:31.122Z,22.20
2018-04-15T13:26:03.061Z,22.60
2018-04-15T13:28:30.918Z,22.50
2018-04-15T13:30:58.575Z,22.50
2018-04-15T13:33:26.202Z,22.30
2018-04-15T13:35:53.861Z,22.60
2018-04-15T13:38:21.425Z,22.70
2018-04-15T13:40:50.329Z,23.30
2018-04-15T13:43:24.330Z,23.60
2018-04-15T13:45:52.769Z,24.10
2018-04-15T13:48:22.522Z,24.10
2018-04-15T13:50:51.082Z,23.70
2018-04-15T13:53:18.916Z,23.70
2018-04-15T13:55:46.611Z,23.00
2018-04-15T13:58:15.126Z,23.10
2018-04-15T14:00:43.523Z,23.00
2018-04-15T14:03:11.072Z,23.00
2018-04-15T14:05:38.696Z,22.00
2018-04-15T14:08:06.255Z,21.40
2018-04-15T14:10:33.915Z,21.00
2018-04-15T14:13:01.468Z,21.40
2018-04-15T14:15:28.992Z,21.90
2018-04-15T14:17:56.592Z,22.00
2018-04-15T14:20:24.124Z,22.10
2018-04-15T14:22:51.673Z,21.80
2018-04-15T14:25:19.270Z,22.10
2018-04-15T14:27:47.004Z,21.50
2018-04-15T14:30:14.723Z,21.10
2018-04-15T14:32:42.463Z,20.80
2018-04-15T14:35:10.956Z,21.50
2018-04-15T14:37:38.643Z,21.60
2018-04-15T14:40:06.380Z,21.20
2018-04-15T14:42:34.202Z,21.20
2018-04-15T14:45:01.887Z,21.50
2018-04-15T14:47:29.602Z,21.30
2018-04-15T14:49:57.485Z,21.30
2018-04-15T14:52:25.227Z,21.00
2018-04-15T14:54:53.416Z,21.00
2018-04-15T14:57:21.723Z,21.10
2018-04-15T14:59:50.297Z,21.10
2018-04-15T15:02:34.214Z,21.30
2018-04-15T15:08:19.828Z,21.50
2018-04-15T15:10:47.381Z,21.50
2018-04-15T15:13:15.023Z,21.50
2018-04-15T15:15:42.788Z,21.30
2018-04-15T15:18:10.594Z,21.20
2018-04-15T15:20:38.225Z,21.10
2018-04-15T15:23:06.318Z,21.00
2018-04-15T15:25:33.978Z,20.70
2018-04-15T15:28:01.811Z,20.70
2018-04-15T15:30:29.605Z,20.70
2018-04-15T15:32:58.387Z,20.50
2018-04-15T15:35:26.032Z,20.50
2018-04-15T15:37:53.704Z,20.40
2018-04-15T15:40:21.535Z,20.40
2018-04-15T15:42:49.178Z,20.30
2018-04-15T15:45:17.865Z,20.30
2018-04-15T15:50:51.922Z,20.10
2018-04-15T15:53:19.980Z,20.00
2018-04-15T15:55:47.895Z,19.90
2018-04-15T15:58:16.278Z,19.60
2018-04-15T16:00:45.591Z,19.50
2018-04-15T16:03:14.028Z,19.50
2018-04-15T16:05:43.004Z,19.50
2018-04-15T16:08:11.701Z,19.50
2018-04-15T16:10:39.901Z,19.40
2018-04-15T16:13:07.668Z,19.40
2018-04-15T16:15:36.420Z,19.30
2018-04-15T16:18:04.765Z,19.20
2018-04-15T16:20:32.995Z,19.10
2018-04-15T16:23:00.868Z,19.00
2018-04-15T16:25:28.887Z,18.90
2018-04-15T16:27:56.621Z,18.90
2018-04-15T16:30:25.533Z,18.80
2018-04-15T16:32:53.829Z,18.70
2018-04-15T16:35:21.799Z,18.70
2018-04-15T16:37:49.864Z,18.60
2018-04-15T16:40:18.777Z,18.60
2018-04-15T16:42:47.955Z,18.40
2018-04-15T16:45:19.669Z,18.40
2018-04-15T16:47:47.859Z,18.40
2018-04-15T16:50:15.858Z,18.30
2018-04-15T16:52:43.793Z,18.20
2018-04-15T16:55:11.999Z,18.10
2018-04-15T16:57:39.880Z,18.00
2018-04-15T17:00:08.044Z,17.90
2018-04-15T17:02:35.939Z,17.80
2018-04-15T17:05:03.790Z,17.70
2018-04-15T17:07:32.919Z,17.50
2018-04-15T17:10:01.379Z,17.50
2018-04-15T17:12:35.311Z,17.40
2018-04-15T17:15:03.354Z,17.30
2018-04-15T17:17:32.064Z,17.10
2018-04-15T17:20:00.563Z,17.00
2018-04-15T17:22:31.965Z,16.90
2018-04-15T17:24:59.998Z,16.90
2018-04-15T17:27:28.081Z,16.70
2018-04-15T17:29:56.230Z,16.60
2018-04-15T17:32:24.252Z,16.50
2018-04-15T17:34:56.270Z,16.50
2018-04-15T17:37:24.433Z,16.40
2018-04-15T17:39:54.341Z,16.30
2018-04-15T17:42:22.165Z,16.30
2018-04-15T17:45:10.491Z,16.20
2018-04-15T17:47:42.035Z,16.10
2018-04-15T17:50:13.571Z,16.00
2018-04-15T17:52:43.067Z,15.90
2018-04-15T17:55:11.400Z,15.80
2018-04-15T17:57:40.137Z,15.80
2018-04-15T18:00:09.777Z,15.70
2018-04-15T18:02:39.866Z,15.70
2018-04-15T18:05:13.808Z,16.40
2018-04-15T18:07:43.111Z,15.60
2018-04-15T18:10:12.422Z,15.60
2018-04-15T18:12:40.859Z,15.50
2018-04-15T18:15:15.538Z,15.50
2018-04-15T18:17:51.199Z,15.50
2018-04-15T18:20:22.197Z,15.40
2018-04-15T18:22:55.085Z,15.30
2018-04-15T18:25:23.025Z,15.20
2018-04-15T18:27:52.500Z,15.30
2018-04-15T18:30:20.659Z,15.30
2018-04-15T18:32:50.658Z,15.20
2018-04-15T18:35:19.421Z,15.10
2018-04-15T18:37:47.726Z,14.90
2018-04-15T18:40:16.038Z,14.90
2018-04-15T18:42:46.589Z,14.90
2018-04-15T18:45:15.680Z,15.00
2018-04-15T18:47:44.370Z,14.90
2018-04-15T18:50:12.390Z,15.00
2018-04-15T18:52:47.681Z,15.10
2018-04-15T18:55:17.126Z,15.10
2018-04-15T18:57:46.395Z,15.10
2018-04-15T19:00:14.494Z,15.00
2018-04-15T19:02:47.003Z,15.00
2018-04-15T19:05:15.055Z,14.90
2018-04-15T19:07:43.666Z,14.80
2018-04-15T19:10:12.253Z,14.80
2018-04-15T19:12:42.759Z,14.70
2018-04-15T19:15:12.021Z,14.60
2018-04-15T19:17:46.810Z,14.60
2018-04-15T19:20:16.480Z,14.70
2018-04-15T19:22:47.055Z,14.60
2018-04-15T19:25:15.320Z,14.60
2018-04-15T19:27:43.596Z,14.50
2018-04-15T19:30:15.709Z,14.30
2018-04-15T19:32:49.809Z,14.30
2018-04-15T20:39:07.389Z,14.20
2018-04-15T20:41:38.299Z,14.30
2018-04-15T20:44:07.851Z,14.20
2018-04-15T20:46:40.857Z,14.20
2018-04-15T20:49:09.336Z,14.10
2018-04-15T20:51:37.931Z,14.00
2018-04-15T20:54:08.098Z,13.90
2018-04-15T20:56:41.346Z,13.70
2018-04-15T20:59:10.418Z,13.50
2018-04-15T21:01:40.246Z,13.30
2018-04-15T21:04:12.949Z,13.20
2018-04-15T21:06:43.321Z,13.10
2018-04-15T21:09:14.934Z,13.10
2018-04-15T21:11:53.573Z,13.00
2018-04-15T21:14:22.287Z,12.90
2018-04-15T21:16:55.693Z,12.90
2018-04-15T21:19:23.640Z,12.80
2018-04-15T21:21:53.988Z,12.70
2018-04-15T21:24:22.254Z,12.60
2018-04-15T21:26:50.111Z,12.60
2018-04-15T21:29:19.319Z,12.50
2018-04-15T21:31:54.065Z,12.50
2018-04-15T21:34:22.508Z,12.40
2018-04-15T21:36:55.074Z,12.40
2018-04-15T21:39:23.630Z,12.40
2018-04-15T21:41:52.388Z,12.40
2018-04-15T21:44:20.798Z,12.50
2018-04-15T21:46:58.742Z,12.50
2018-04-15T21:49:30.071Z,12.40
2018-04-15T21:51:58.787Z,12.50
2018-04-15T21:54:26.885Z,12.40
2018-04-15T21:56:55.004Z,12.30
2018-04-15T21:59:23.225Z,12.30
2018-04-15T22:01:51.580Z,12.30
2018-04-15T22:04:20.237Z,12.30
2018-04-15T22:06:49.698Z,12.30
2018-04-15T22:09:17.935Z,12.30
2018-04-15T22:11:57.639Z,12.30
2018-04-15T22:14:25.509Z,12.20
2018-04-15T22:16:56.584Z,12.20
2018-04-15T22:19:26.939Z,12.20
2018-04-15T22:21:59.493Z,12.20
2018-04-15T22:24:28.167Z,12.20
2018-04-15T22:26:56.250Z,12.20
2018-04-15T22:29:25.131Z,12.20
2018-04-15T22:31:53.559Z,12.20
2018-04-15T22:34:22.102Z,12.20
2018-04-15T22:36:50.555Z,12.20
2018-04-15T22:39:18.696Z,12.20
2018-04-15T22:41:57.344Z,12.20
2018-04-15T22:44:27.011Z,12.20
2018-04-15T22:46:59.642Z,12.20
2018-04-15T22:49:29.509Z,12.20
2018-04-15T22:51:59.222Z,12.20
2018-04-15T22:54:27.504Z,12.20
2018-04-15T22:57:06.105Z,12.20
2018-04-15T22:59:35.713Z,12.20
2018-04-15T23:02:05.485Z,12.20
2018-04-15T23:04:34.308Z,12.20
2018-04-15T23:07:16.319Z,12.20
2018-04-15T23:09:45.124Z,12.20
2018-04-15T23:12:15.937Z,12.20
2018-04-15T23:14:45.128Z,12.20
2018-04-15T23:17:13.850Z,12.20
2018-04-15T23:19:43.063Z,12.10
2018-04-15T23:22:11.826Z,12.10
2018-04-15T23:24:40.884Z,12.10
2018-04-15T23:27:10.563Z,12.10
2018-04-15T23:29:39.319Z,12.00
2018-04-15T23:32:08.215Z,12.10
2018-04-15T23:34:37.428Z,12.00
2018-04-15T23:37:07.617Z,12.00
2018-04-15T23:39:36.014Z,12.00
2018-04-15T23:42:06.728Z,11.90
2018-04-15T23:44:37.420Z,11.90
2018-04-15T23:47:10.060Z,11.80
2018-04-15T23:49:40.879Z,11.80
2018-04-15T23:52:12.647Z,11.80
2018-04-15T23:54:44.837Z,11.80
2018-04-15T23:57:14.429Z,11.80
2018-04-15T23:59:43.548Z,11.80
